sensor_id;sensor_type;location;lat;lon;timestamp;temperature;humidity
33673;DHT22;20011;51.510;9.942;2023-10-31T00:00:12;14.60;99.90
33673;DHT22;20011;51.510;9.942;2023-10-31T00:02:39;14.60;99.90
33673;DHT22;20011;51.510;9.942;2023-10-31T00:05:06;14.60;99.90
33673;DHT22;20011;51.510;9.942;2023-10-31T00:07:33;14.60;99.90
33673;DHT22;20011;51.510;9.942;2023-10-31T00:10:00;14.60;99.90
33673;DHT22;20011;51.510;9.942;2023-10-31T00:12:28;14.60;99.90
33673;DHT22;20011;51.510;9.942;2023-10-31T00:14:55;14.60;99.90
33673;DHT22;20011;51.510;9.942;2023-10-31T00:17:21;14.50;99.90
33673;DHT22;20011;51.510;9.942;2023-10-31T00:19:49;14.50;99.90
33673;DHT22;20011;51.510;9.942;2023-10-31T00:22:16;14.60;99.90
33673;DHT22;20011;51.510;9.942;2023-10-31T00:24:43;14.50;99.90
33673;DHT22;20011;51.510;9.942;2023-10-31T00:27:10;14.50;99.90
33673;DHT22;20011;51.510;9.942;2023-10-31T00:29:37;14.50;99.90
33673;DHT22;20011;51.510;9.942;2023-10-31T00:32:04;14.50;99.90
33673;DHT22;20011;51.510;9.942;2023-10-31T00:34:33;14.60;99.90
33673;DHT22;20011;51.510;9.942;2023-10-31T00:37:00;14.60;99.90
33673;DHT22;20011;51.510;9.942;2023-10-31T00:39:27;14.60;99.90
33673;DHT22;20011;51.510;9.942;2023-10-31T00:41:54;14.60;99.90
33673;DHT22;20011;51.510;9.942;2023-10-31T00:44:21;14.60;99.90
33673;DHT22;20011;51.510;9.942;2023-10-31T00:46:48;14.50;99.90
33673;DHT22;20011;51.510;9.942;2023-10-31T00:49:15;14.50;99.90
33673;DHT22;20011;51.510;9.942;2023-10-31T00:51:42;14.60;99.90
33673;DHT22;20011;51.510;9.942;2023-10-31T00:54:09;14.50;99.90
33673;DHT22;20011;51.510;9.942;2023-10-31T00:56:36;14.50;99.90
33673;DHT22;20011;51.510;9.942;2023-10-31T00:59:03;14.60;99.90
33673;DHT22;20011;51.510;9.942;2023-10-31T01:01:30;14.60;99.90
33673;DHT22;20011;51.510;9.942;2023-10-31T01:03:57;14.50;99.90
33673;DHT22;20011;51.510;9.942;2023-10-31T01:06:24;14.60;99.90
33673;DHT22;20011;51.510;9.942;2023-10-31T01:08:51;14.60;99.90
33673;DHT22;20011;51.510;9.942;2023-10-31T01:11:18;14.50;99.90
33673;DHT22;20011;51.510;9.942;2023-10-31T01:13:45;14.60;99.90
33673;DHT22;20011;51.510;9.942;2023-10-31T01:16:12;14.60;99.90
33673;DHT22;20011;51.510;9.942;2023-10-31T01:18:39;14.60;99.90
33673;DHT22;20011;51.510;9.942;2023-10-31T01:21:07;14.60;99.90
33673;DHT22;20011;51.510;9.942;2023-10-31T01:23:35;14.60;99.90
33673;DHT22;20011;51.510;9.942;2023-10-31T01:26:03;14.60;99.90
33673;DHT22;20011;51.510;9.942;2023-10-31T01:28:30;14.60;99.90
33673;DHT22;20011;51.510;9.942;2023-10-31T01:30:57;14.60;99.90
33673;DHT22;20011;51.510;9.942;2023-10-31T01:33:24;14.60;99.90
33673;DHT22;20011;51.510;9.942;2023-10-31T01:35:51;14.60;99.90
33673;DHT22;20011;51.510;9.942;2023-10-31T01:38:18;14.60;99.90
33673;DHT22;20011;51.510;9.942;2023-10-31T01:40:49;14.60;99.90
33673;DHT22;20011;51.510;9.942;2023-10-31T01:43:36;14.60;99.90
33673;DHT22;20011;51.510;9.942;2023-10-31T01:46:04;14.60;99.90
33673;DHT22;20011;51.510;9.942;2023-10-31T01:48:32;14.60;99.90
33673;DHT22;20011;51.510;9.942;2023-10-31T01:51:02;14.60;99.90
33673;DHT22;20011;51.510;9.942;2023-10-31T01:53:34;14.60;99.90
33673;DHT22;20011;51.510;9.942;2023-10-31T01:56:02;14.70;99.90
33673;DHT22;20011;51.510;9.942;2023-10-31T01:58:35;14.60;99.90
33673;DHT22;20011;51.510;9.942;2023-10-31T02:01:03;14.60;99.90
33673;DHT22;20011;51.510;9.942;2023-10-31T02:03:31;14.60;99.90
33673;DHT22;20011;51.510;9.942;2023-10-31T02:05:58;14.60;99.90
33673;DHT22;20011;51.510;9.942;2023-10-31T02:08:25;14.60;99.90
33673;DHT22;20011;51.510;9.942;2023-10-31T02:10:52;14.60;99.90
33673;DHT22;20011;51.510;9.942;2023-10-31T02:13:19;14.60;99.90
33673;DHT22;20011;51.510;9.942;2023-10-31T02:15:46;14.60;99.90
33673;DHT22;20011;51.510;9.942;2023-10-31T02:18:14;14.60;99.90
33673;DHT22;20011;51.510;9.942;2023-10-31T02:20:41;14.70;99.90
33673;DHT22;20011;51.510;9.942;2023-10-31T02:23:08;14.60;99.90
33673;DHT22;20011;51.510;9.942;2023-10-31T02:25:35;14.60;99.90
33673;DHT22;20011;51.510;9.942;2023-10-31T02:28:02;14.60;99.90
33673;DHT22;20011;51.510;9.942;2023-10-31T02:30:30;14.60;99.90
33673;DHT22;20011;51.510;9.942;2023-10-31T02:32:57;14.60;99.90
33673;DHT22;20011;51.510;9.942;2023-10-31T02:35:24;14.60;99.90
33673;DHT22;20011;51.510;9.942;2023-10-31T02:37:51;14.60;99.90
33673;DHT22;20011;51.510;9.942;2023-10-31T02:40:18;14.60;99.90
33673;DHT22;20011;51.510;9.942;2023-10-31T02:42:45;14.60;99.90
33673;DHT22;20011;51.510;9.942;2023-10-31T02:45:12;14.60;99.90
33673;DHT22;20011;51.510;9.942;2023-10-31T02:47:39;14.60;99.90
33673;DHT22;20011;51.510;9.942;2023-10-31T02:50:07;14.60;99.90
33673;DHT22;20011;51.510;9.942;2023-10-31T02:52:34;14.60;99.90
33673;DHT22;20011;51.510;9.942;2023-10-31T02:55:01;14.60;99.90
33673;DHT22;20011;51.510;9.942;2023-10-31T02:57:28;14.60;99.90
33673;DHT22;20011;51.510;9.942;2023-10-31T02:59:55;14.60;99.90
33673;DHT22;20011;51.510;9.942;2023-10-31T03:02:22;14.60;99.90
33673;DHT22;20011;51.510;9.942;2023-10-31T03:04:49;14.60;99.90
33673;DHT22;20011;51.510;9.942;2023-10-31T03:07:16;14.60;99.90
33673;DHT22;20011;51.510;9.942;2023-10-31T03:09:43;14.60;99.90
33673;DHT22;20011;51.510;9.942;2023-10-31T03:12:10;14.60;99.90
33673;DHT22;20011;51.510;9.942;2023-10-31T03:14:37;14.60;99.90
33673;DHT22;20011;51.510;9.942;2023-10-31T03:17:05;14.70;99.90
33673;DHT22;20011;51.510;9.942;2023-10-31T03:19:31;14.70;99.90
33673;DHT22;20011;51.510;9.942;2023-10-31T03:21:58;14.70;99.90
33673;DHT22;20011;51.510;9.942;2023-10-31T03:24:25;14.70;99.90
33673;DHT22;20011;51.510;9.942;2023-10-31T03:26:52;14.70;99.90
33673;DHT22;20011;51.510;9.942;2023-10-31T03:29:19;14.70;99.90
33673;DHT22;20011;51.510;9.942;2023-10-31T03:31:46;14.70;99.90
33673;DHT22;20011;51.510;9.942;2023-10-31T03:34:13;14.70;99.90
33673;DHT22;20011;51.510;9.942;2023-10-31T03:36:40;14.70;99.90
33673;DHT22;20011;51.510;9.942;2023-10-31T03:39:07;14.60;99.90
33673;DHT22;20011;51.510;9.942;2023-10-31T03:41:34;14.60;99.90
33673;DHT22;20011;51.510;9.942;2023-10-31T03:44:01;14.50;99.90
33673;DHT22;20011;51.510;9.942;2023-10-31T03:46:28;14.50;99.90
33673;DHT22;20011;51.510;9.942;2023-10-31T03:48:55;14.60;99.90
33673;DHT22;20011;51.510;9.942;2023-10-31T03:51:22;14.50;99.90
33673;DHT22;20011;51.510;9.942;2023-10-31T03:53:49;14.50;99.90
33673;DHT22;20011;51.510;9.942;2023-10-31T03:56:16;14.40;99.90
33673;DHT22;20011;51.510;9.942;2023-10-31T03:58:43;14.40;99.90
33673;DHT22;20011;51.510;9.942;2023-10-31T04:01:10;14.40;99.90
33673;DHT22;20011;51.510;9.942;2023-10-31T04:03:37;14.40;99.90
33673;DHT22;20011;51.510;9.942;2023-10-31T04:06:05;14.40;99.90
33673;DHT22;20011;51.510;9.942;2023-10-31T04:08:32;14.40;99.90
33673;DHT22;20011;51.510;9.942;2023-10-31T04:10:59;14.40;99.90
33673;DHT22;20011;51.510;9.942;2023-10-31T04:13:26;14.40;99.90
33673;DHT22;20011;51.510;9.942;2023-10-31T04:15:53;14.40;99.90
33673;DHT22;20011;51.510;9.942;2023-10-31T04:18:20;14.40;99.90
33673;DHT22;20011;51.510;9.942;2023-10-31T04:20:47;14.30;99.90
33673;DHT22;20011;51.510;9.942;2023-10-31T04:23:13;14.40;99.90
33673;DHT22;20011;51.510;9.942;2023-10-31T04:25:40;14.40;99.90
33673;DHT22;20011;51.510;9.942;2023-10-31T04:28:08;14.30;99.90
33673;DHT22;20011;51.510;9.942;2023-10-31T04:30:35;14.30;99.90
33673;DHT22;20011;51.510;9.942;2023-10-31T04:33:02;14.30;99.90
33673;DHT22;20011;51.510;9.942;2023-10-31T04:35:29;14.40;99.90
33673;DHT22;20011;51.510;9.942;2023-10-31T04:37:56;14.40;99.90
33673;DHT22;20011;51.510;9.942;2023-10-31T04:40:23;14.30;99.90
33673;DHT22;20011;51.510;9.942;2023-10-31T04:42:50;14.30;99.90
33673;DHT22;20011;51.510;9.942;2023-10-31T04:45:17;14.30;99.90
33673;DHT22;20011;51.510;9.942;2023-10-31T04:47:45;14.30;99.90
33673;DHT22;20011;51.510;9.942;2023-10-31T04:50:12;14.40;99.90
33673;DHT22;20011;51.510;9.942;2023-10-31T04:52:39;14.30;99.90
33673;DHT22;20011;51.510;9.942;2023-10-31T04:55:06;14.30;99.90
33673;DHT22;20011;51.510;9.942;2023-10-31T04:57:33;14.30;99.90
33673;DHT22;20011;51.510;9.942;2023-10-31T05:00:00;14.30;99.90
33673;DHT22;20011;51.510;9.942;2023-10-31T05:02:27;14.30;99.90
33673;DHT22;20011;51.510;9.942;2023-10-31T05:04:55;14.20;99.90
33673;DHT22;20011;51.510;9.942;2023-10-31T05:07:22;14.20;99.90
33673;DHT22;20011;51.510;9.942;2023-10-31T05:09:49;14.20;99.90
33673;DHT22;20011;51.510;9.942;2023-10-31T05:12:16;14.20;99.90
33673;DHT22;20011;51.510;9.942;2023-10-31T05:14:43;14.20;99.90
33673;DHT22;20011;51.510;9.942;2023-10-31T05:17:10;14.20;99.90
33673;DHT22;20011;51.510;9.942;2023-10-31T05:19:37;14.30;99.90
33673;DHT22;20011;51.510;9.942;2023-10-31T05:22:04;14.20;99.90
33673;DHT22;20011;51.510;9.942;2023-10-31T05:24:31;14.20;99.90
33673;DHT22;20011;51.510;9.942;2023-10-31T05:26:59;14.20;99.90
33673;DHT22;20011;51.510;9.942;2023-10-31T05:29:25;14.20;99.90
33673;DHT22;20011;51.510;9.942;2023-10-31T05:31:52;14.20;99.90
33673;DHT22;20011;51.510;9.942;2023-10-31T05:34:19;14.20;99.90
33673;DHT22;20011;51.510;9.942;2023-10-31T05:36:47;14.20;99.90
33673;DHT22;20011;51.510;9.942;2023-10-31T05:39:14;14.20;99.90
33673;DHT22;20011;51.510;9.942;2023-10-31T05:41:42;14.20;99.90
33673;DHT22;20011;51.510;9.942;2023-10-31T05:44:09;14.10;99.90
33673;DHT22;20011;51.510;9.942;2023-10-31T05:46:38;14.10;99.90
33673;DHT22;20011;51.510;9.942;2023-10-31T05:49:09;14.10;99.90
33673;DHT22;20011;51.510;9.942;2023-10-31T05:51:36;14.10;99.90
33673;DHT22;20011;51.510;9.942;2023-10-31T05:54:06;14.10;99.90
33673;DHT22;20011;51.510;9.942;2023-10-31T05:56:33;14.10;99.90
33673;DHT22;20011;51.510;9.942;2023-10-31T05:59:00;14.00;99.90
33673;DHT22;20011;51.510;9.942;2023-10-31T06:01:27;14.10;99.90
33673;DHT22;20011;51.510;9.942;2023-10-31T06:03:54;14.10;99.90
33673;DHT22;20011;51.510;9.942;2023-10-31T06:06:21;14.10;99.90
33673;DHT22;20011;51.510;9.942;2023-10-31T06:08:47;14.00;99.90
33673;DHT22;20011;51.510;9.942;2023-10-31T06:11:14;14.10;99.90
33673;DHT22;20011;51.510;9.942;2023-10-31T06:13:42;14.10;99.90
33673;DHT22;20011;51.510;9.942;2023-10-31T06:16:09;14.00;99.90
33673;DHT22;20011;51.510;9.942;2023-10-31T06:18:38;14.10;99.90
33673;DHT22;20011;51.510;9.942;2023-10-31T06:21:05;14.10;99.90
33673;DHT22;20011;51.510;9.942;2023-10-31T06:23:32;14.00;99.90
33673;DHT22;20011;51.510;9.942;2023-10-31T06:25:59;14.00;99.90
33673;DHT22;20011;51.510;9.942;2023-10-31T06:28:26;14.00;99.90
33673;DHT22;20011;51.510;9.942;2023-10-31T06:30:53;14.00;99.90
33673;DHT22;20011;51.510;9.942;2023-10-31T06:33:20;13.90;99.90
33673;DHT22;20011;51.510;9.942;2023-10-31T06:35:47;13.90;99.90
33673;DHT22;20011;51.510;9.942;2023-10-31T06:38:14;13.90;99.90
33673;DHT22;20011;51.510;9.942;2023-10-31T06:40:41;13.90;99.90
33673;DHT22;20011;51.510;9.942;2023-10-31T06:43:08;13.90;99.90
33673;DHT22;20011;51.510;9.942;2023-10-31T06:45:35;13.90;99.90
33673;DHT22;20011;51.510;9.942;2023-10-31T06:48:02;13.90;99.90
33673;DHT22;20011;51.510;9.942;2023-10-31T06:50:29;13.90;99.90
33673;DHT22;20011;51.510;9.942;2023-10-31T06:52:56;13.90;99.90
33673;DHT22;20011;51.510;9.942;2023-10-31T06:55:23;13.90;99.90
33673;DHT22;20011;51.510;9.942;2023-10-31T06:57:50;13.90;99.90
33673;DHT22;20011;51.510;9.942;2023-10-31T07:00:17;13.80;99.90
33673;DHT22;20011;51.510;9.942;2023-10-31T07:02:44;13.80;99.90
33673;DHT22;20011;51.510;9.942;2023-10-31T07:05:11;13.90;99.90
33673;DHT22;20011;51.510;9.942;2023-10-31T07:07:39;13.90;99.90
33673;DHT22;20011;51.510;9.942;2023-10-31T07:10:06;13.90;99.90
33673;DHT22;20011;51.510;9.942;2023-10-31T07:12:33;13.80;99.90
33673;DHT22;20011;51.510;9.942;2023-10-31T07:15:00;13.80;99.90
33673;DHT22;20011;51.510;9.942;2023-10-31T07:17:27;13.80;99.90
33673;DHT22;20011;51.510;9.942;2023-10-31T07:19:56;13.80;99.90
33673;DHT22;20011;51.510;9.942;2023-10-31T07:22:23;13.80;99.90
33673;DHT22;20011;51.510;9.942;2023-10-31T07:24:51;13.80;99.90
33673;DHT22;20011;51.510;9.942;2023-10-31T07:27:20;13.80;99.90
33673;DHT22;20011;51.510;9.942;2023-10-31T07:29:46;13.80;99.90
33673;DHT22;20011;51.510;9.942;2023-10-31T07:32:13;13.80;99.90
33673;DHT22;20011;51.510;9.942;2023-10-31T07:34:41;13.80;99.90
33673;DHT22;20011;51.510;9.942;2023-10-31T07:37:11;13.70;99.90
33673;DHT22;20011;51.510;9.942;2023-10-31T07:39:38;13.80;99.90
33673;DHT22;20011;51.510;9.942;2023-10-31T07:42:05;13.80;99.90
33673;DHT22;20011;51.510;9.942;2023-10-31T07:44:32;13.70;99.90
33673;DHT22;20011;51.510;9.942;2023-10-31T07:46:59;13.80;99.90
33673;DHT22;20011;51.510;9.942;2023-10-31T07:49:26;13.80;99.90
33673;DHT22;20011;51.510;9.942;2023-10-31T07:51:53;13.80;99.90
33673;DHT22;20011;51.510;9.942;2023-10-31T07:54:21;13.80;99.90
33673;DHT22;20011;51.510;9.942;2023-10-31T07:56:48;13.80;99.90
33673;DHT22;20011;51.510;9.942;2023-10-31T07:59:15;13.80;99.90
33673;DHT22;20011;51.510;9.942;2023-10-31T08:01:42;13.80;99.90
33673;DHT22;20011;51.510;9.942;2023-10-31T08:04:09;13.80;99.90
33673;DHT22;20011;51.510;9.942;2023-10-31T08:06:37;13.80;99.90
33673;DHT22;20011;51.510;9.942;2023-10-31T08:09:03;13.80;99.90
33673;DHT22;20011;51.510;9.942;2023-10-31T08:11:33;13.80;99.90
33673;DHT22;20011;51.510;9.942;2023-10-31T08:14:01;13.80;99.90
33673;DHT22;20011;51.510;9.942;2023-10-31T08:16:29;13.80;99.90
33673;DHT22;20011;51.510;9.942;2023-10-31T08:18:56;13.90;99.90
33673;DHT22;20011;51.510;9.942;2023-10-31T08:21:23;13.80;99.90
33673;DHT22;20011;51.510;9.942;2023-10-31T08:23:50;13.80;99.90
33673;DHT22;20011;51.510;9.942;2023-10-31T08:26:17;13.80;99.90
33673;DHT22;20011;51.510;9.942;2023-10-31T08:28:44;13.80;99.90
33673;DHT22;20011;51.510;9.942;2023-10-31T08:31:11;13.80;99.90
33673;DHT22;20011;51.510;9.942;2023-10-31T08:33:38;13.80;99.90
33673;DHT22;20011;51.510;9.942;2023-10-31T08:36:05;13.90;99.90
33673;DHT22;20011;51.510;9.942;2023-10-31T08:38:33;13.80;99.90
33673;DHT22;20011;51.510;9.942;2023-10-31T08:41:00;13.80;99.90
33673;DHT22;20011;51.510;9.942;2023-10-31T08:43:27;13.80;99.90
33673;DHT22;20011;51.510;9.942;2023-10-31T08:45:54;13.90;99.90
33673;DHT22;20011;51.510;9.942;2023-10-31T08:48:21;13.80;99.90
33673;DHT22;20011;51.510;9.942;2023-10-31T08:50:48;13.80;99.90
33673;DHT22;20011;51.510;9.942;2023-10-31T08:53:15;13.80;99.90
33673;DHT22;20011;51.510;9.942;2023-10-31T08:55:43;13.80;99.90
33673;DHT22;20011;51.510;9.942;2023-10-31T08:58:13;13.80;99.90
33673;DHT22;20011;51.510;9.942;2023-10-31T09:00:40;13.70;99.90
33673;DHT22;20011;51.510;9.942;2023-10-31T09:03:09;13.60;99.90
33673;DHT22;20011;51.510;9.942;2023-10-31T09:05:36;13.50;99.90
33673;DHT22;20011;51.510;9.942;2023-10-31T09:08:03;13.40;99.90
33673;DHT22;20011;51.510;9.942;2023-10-31T09:10:31;13.30;99.90
33673;DHT22;20011;51.510;9.942;2023-10-31T09:12:58;13.20;99.90
33673;DHT22;20011;51.510;9.942;2023-10-31T09:15:25;13.10;99.90
33673;DHT22;20011;51.510;9.942;2023-10-31T09:17:52;13.00;99.90
33673;DHT22;20011;51.510;9.942;2023-10-31T09:20:19;13.00;99.90
33673;DHT22;20011;51.510;9.942;2023-10-31T09:22:47;12.90;99.90
33673;DHT22;20011;51.510;9.942;2023-10-31T09:25:13;12.90;99.90
33673;DHT22;20011;51.510;9.942;2023-10-31T09:27:41;12.90;99.90
33673;DHT22;20011;51.510;9.942;2023-10-31T09:30:08;12.90;99.90
33673;DHT22;20011;51.510;9.942;2023-10-31T09:32:35;12.90;99.90
33673;DHT22;20011;51.510;9.942;2023-10-31T09:35:03;13.00;99.90
33673;DHT22;20011;51.510;9.942;2023-10-31T09:37:30;13.00;99.90
33673;DHT22;20011;51.510;9.942;2023-10-31T09:39:57;13.00;99.90
33673;DHT22;20011;51.510;9.942;2023-10-31T09:42:24;13.00;99.90
33673;DHT22;20011;51.510;9.942;2023-10-31T09:44:52;13.00;99.90
33673;DHT22;20011;51.510;9.942;2023-10-31T09:47:20;13.10;99.90
33673;DHT22;20011;51.510;9.942;2023-10-31T09:49:47;13.10;99.90
33673;DHT22;20011;51.510;9.942;2023-10-31T09:52:14;13.10;99.90
33673;DHT22;20011;51.510;9.942;2023-10-31T09:54:42;13.10;99.90
33673;DHT22;20011;51.510;9.942;2023-10-31T09:57:13;13.10;99.90
33673;DHT22;20011;51.510;9.942;2023-10-31T09:59:41;13.20;99.90
33673;DHT22;20011;51.510;9.942;2023-10-31T10:02:08;13.10;99.90
33673;DHT22;20011;51.510;9.942;2023-10-31T10:04:37;13.20;99.90
33673;DHT22;20011;51.510;9.942;2023-10-31T10:07:04;13.30;99.90
33673;DHT22;20011;51.510;9.942;2023-10-31T10:09:31;13.30;99.90
33673;DHT22;20011;51.510;9.942;2023-10-31T10:12:00;13.30;99.90
33673;DHT22;20011;51.510;9.942;2023-10-31T10:14:27;13.30;99.90
33673;DHT22;20011;51.510;9.942;2023-10-31T10:16:55;13.40;99.90
33673;DHT22;20011;51.510;9.942;2023-10-31T10:19:23;13.50;99.90
33673;DHT22;20011;51.510;9.942;2023-10-31T10:21:53;13.50;99.90
33673;DHT22;20011;51.510;9.942;2023-10-31T10:24:21;13.60;99.90
33673;DHT22;20011;51.510;9.942;2023-10-31T10:26:49;13.60;99.90
33673;DHT22;20011;51.510;9.942;2023-10-31T10:29:16;13.70;99.90
33673;DHT22;20011;51.510;9.942;2023-10-31T10:31:43;13.70;99.90
33673;DHT22;20011;51.510;9.942;2023-10-31T10:34:15;13.80;99.90
33673;DHT22;20011;51.510;9.942;2023-10-31T10:36:48;13.80;99.90
33673;DHT22;20011;51.510;9.942;2023-10-31T10:39:20;13.80;99.90
33673;DHT22;20011;51.510;9.942;2023-10-31T10:41:55;13.80;99.90
33673;DHT22;20011;51.510;9.942;2023-10-31T10:44:34;13.90;99.90
33673;DHT22;20011;51.510;9.942;2023-10-31T10:47:04;13.90;99.90
33673;DHT22;20011;51.510;9.942;2023-10-31T10:49:36;14.00;99.90
33673;DHT22;20011;51.510;9.942;2023-10-31T10:52:10;13.90;99.90
33673;DHT22;20011;51.510;9.942;2023-10-31T10:54:45;13.90;99.90
33673;DHT22;20011;51.510;9.942;2023-10-31T10:57:21;14.00;99.90
33673;DHT22;20011;51.510;9.942;2023-10-31T10:59:51;14.00;99.90
33673;DHT22;20011;51.510;9.942;2023-10-31T11:02:22;14.00;99.90
33673;DHT22;20011;51.510;9.942;2023-10-31T11:04:49;14.00;99.90
33673;DHT22;20011;51.510;9.942;2023-10-31T11:07:18;14.00;99.90
33673;DHT22;20011;51.510;9.942;2023-10-31T11:09:45;13.90;99.90
33673;DHT22;20011;51.510;9.942;2023-10-31T11:12:13;14.00;99.90
33673;DHT22;20011;51.510;9.942;2023-10-31T11:14:41;14.00;99.90
33673;DHT22;20011;51.510;9.942;2023-10-31T11:17:24;14.00;99.90
33673;DHT22;20011;51.510;9.942;2023-10-31T11:19:53;14.00;99.90
33673;DHT22;20011;51.510;9.942;2023-10-31T11:22:21;14.00;99.90
33673;DHT22;20011;51.510;9.942;2023-10-31T11:24:50;14.00;99.90
33673;DHT22;20011;51.510;9.942;2023-10-31T11:27:18;14.00;99.90
33673;DHT22;20011;51.510;9.942;2023-10-31T11:29:45;14.00;99.90
33673;DHT22;20011;51.510;9.942;2023-10-31T11:32:14;13.90;99.90
33673;DHT22;20011;51.510;9.942;2023-10-31T11:34:42;14.00;99.90
33673;DHT22;20011;51.510;9.942;2023-10-31T11:37:27;14.00;99.90
33673;DHT22;20011;51.510;9.942;2023-10-31T11:42:44;14.00;99.90
33673;DHT22;20011;51.510;9.942;2023-10-31T11:45:32;14.10;99.90
33673;DHT22;20011;51.510;9.942;2023-10-31T11:48:00;14.10;99.90
33673;DHT22;20011;51.510;9.942;2023-10-31T11:50:27;14.10;99.90
33673;DHT22;20011;51.510;9.942;2023-10-31T11:53:11;14.10;99.90
33673;DHT22;20011;51.510;9.942;2023-10-31T11:55:44;14.10;99.90
33673;DHT22;20011;51.510;9.942;2023-10-31T11:58:17;14.20;99.90
33673;DHT22;20011;51.510;9.942;2023-10-31T12:00:46;14.10;99.90
33673;DHT22;20011;51.510;9.942;2023-10-31T12:03:15;14.10;99.90
33673;DHT22;20011;51.510;9.942;2023-10-31T12:05:56;14.20;99.90
33673;DHT22;20011;51.510;9.942;2023-10-31T12:08:43;14.20;99.90
33673;DHT22;20011;51.510;9.942;2023-10-31T12:14:17;14.20;99.90
33673;DHT22;20011;51.510;9.942;2023-10-31T12:16:45;14.20;99.90
33673;DHT22;20011;51.510;9.942;2023-10-31T12:19:13;14.20;99.90
33673;DHT22;20011;51.510;9.942;2023-10-31T12:21:46;14.20;99.90
33673;DHT22;20011;51.510;9.942;2023-10-31T12:24:16;14.30;99.90
33673;DHT22;20011;51.510;9.942;2023-10-31T12:26:44;14.20;99.90
33673;DHT22;20011;51.510;9.942;2023-10-31T12:29:16;14.30;99.90
33673;DHT22;20011;51.510;9.942;2023-10-31T12:31:49;14.30;99.90
33673;DHT22;20011;51.510;9.942;2023-10-31T12:34:17;14.40;99.90
33673;DHT22;20011;51.510;9.942;2023-10-31T12:36:49;14.40;99.90
33673;DHT22;20011;51.510;9.942;2023-10-31T12:39:20;14.50;99.90
33673;DHT22;20011;51.510;9.942;2023-10-31T12:41:49;14.50;99.90
33673;DHT22;20011;51.510;9.942;2023-10-31T12:44:23;14.50;99.90
33673;DHT22;20011;51.510;9.942;2023-10-31T12:46:51;14.50;99.90
33673;DHT22;20011;51.510;9.942;2023-10-31T12:49:19;14.60;99.90
33673;DHT22;20011;51.510;9.942;2023-10-31T12:52:03;14.50;99.90
33673;DHT22;20011;51.510;9.942;2023-10-31T12:54:36;14.60;99.90
33673;DHT22;20011;51.510;9.942;2023-10-31T12:57:07;14.60;99.90
33673;DHT22;20011;51.510;9.942;2023-10-31T12:59:36;14.60;99.90
33673;DHT22;20011;51.510;9.942;2023-10-31T13:02:05;14.60;99.90
33673;DHT22;20011;51.510;9.942;2023-10-31T13:04:33;14.60;99.90
33673;DHT22;20011;51.510;9.942;2023-10-31T13:07:02;14.60;99.90
33673;DHT22;20011;51.510;9.942;2023-10-31T13:09:31;14.60;99.90
33673;DHT22;20011;51.510;9.942;2023-10-31T13:12:06;14.60;99.90
33673;DHT22;20011;51.510;9.942;2023-10-31T13:14:33;14.60;99.90
33673;DHT22;20011;51.510;9.942;2023-10-31T13:17:01;14.60;99.90
33673;DHT22;20011;51.510;9.942;2023-10-31T13:19:30;14.60;99.90
33673;DHT22;20011;51.510;9.942;2023-10-31T13:21:57;14.60;99.90
33673;DHT22;20011;51.510;9.942;2023-10-31T13:24:24;14.60;99.90
33673;DHT22;20011;51.510;9.942;2023-10-31T13:26:51;14.60;99.90
33673;DHT22;20011;51.510;9.942;2023-10-31T13:29:20;14.60;99.90
33673;DHT22;20011;51.510;9.942;2023-10-31T13:31:47;14.60;99.90
33673;DHT22;20011;51.510;9.942;2023-10-31T13:34:14;14.60;99.90
33673;DHT22;20011;51.510;9.942;2023-10-31T13:36:41;14.60;99.90
33673;DHT22;20011;51.510;9.942;2023-10-31T13:39:09;14.60;99.90
33673;DHT22;20011;51.510;9.942;2023-10-31T13:41:37;14.60;99.90
33673;DHT22;20011;51.510;9.942;2023-10-31T13:44:04;14.60;99.90
33673;DHT22;20011;51.510;9.942;2023-10-31T13:46:31;14.60;99.90
33673;DHT22;20011;51.510;9.942;2023-10-31T13:48:58;14.50;99.90
33673;DHT22;20011;51.510;9.942;2023-10-31T13:51:25;14.50;99.90
33673;DHT22;20011;51.510;9.942;2023-10-31T13:53:52;14.60;99.90
33673;DHT22;20011;51.510;9.942;2023-10-31T13:56:19;14.50;99.90
33673;DHT22;20011;51.510;9.942;2023-10-31T13:58:46;14.50;99.90
33673;DHT22;20011;51.510;9.942;2023-10-31T14:01:14;14.50;99.90
33673;DHT22;20011;51.510;9.942;2023-10-31T14:03:42;14.50;99.90
33673;DHT22;20011;51.510;9.942;2023-10-31T14:06:11;14.60;99.90
33673;DHT22;20011;51.510;9.942;2023-10-31T14:08:39;14.60;99.90
33673;DHT22;20011;51.510;9.942;2023-10-31T14:11:06;14.60;99.90
33673;DHT22;20011;51.510;9.942;2023-10-31T14:13:35;14.60;99.90
33673;DHT22;20011;51.510;9.942;2023-10-31T14:16:02;14.60;99.90
33673;DHT22;20011;51.510;9.942;2023-10-31T14:18:29;14.60;99.90
33673;DHT22;20011;51.510;9.942;2023-10-31T14:20:58;14.60;99.90
33673;DHT22;20011;51.510;9.942;2023-10-31T14:23:25;14.60;99.90
33673;DHT22;20011;51.510;9.942;2023-10-31T14:25:52;14.60;99.90
33673;DHT22;20011;51.510;9.942;2023-10-31T14:28:19;14.60;99.90
33673;DHT22;20011;51.510;9.942;2023-10-31T14:30:46;14.60;99.90
33673;DHT22;20011;51.510;9.942;2023-10-31T14:33:13;14.60;99.90
33673;DHT22;20011;51.510;9.942;2023-10-31T14:35:40;14.60;99.90
33673;DHT22;20011;51.510;9.942;2023-10-31T14:38:07;14.60;99.90
33673;DHT22;20011;51.510;9.942;2023-10-31T14:40:34;14.50;99.90
33673;DHT22;20011;51.510;9.942;2023-10-31T14:43:01;14.50;99.90
33673;DHT22;20011;51.510;9.942;2023-10-31T14:45:28;14.60;99.90
33673;DHT22;20011;51.510;9.942;2023-10-31T14:47:56;14.50;99.90
33673;DHT22;20011;51.510;9.942;2023-10-31T14:50:23;14.60;99.90
33673;DHT22;20011;51.510;9.942;2023-10-31T14:52:50;14.60;99.90
33673;DHT22;20011;51.510;9.942;2023-10-31T14:55:16;14.50;99.90
33673;DHT22;20011;51.510;9.942;2023-10-31T14:57:43;14.50;99.90
33673;DHT22;20011;51.510;9.942;2023-10-31T15:00:11;14.50;99.90
33673;DHT22;20011;51.510;9.942;2023-10-31T15:02:40;14.50;99.90
33673;DHT22;20011;51.510;9.942;2023-10-31T15:05:07;14.50;99.90
33673;DHT22;20011;51.510;9.942;2023-10-31T15:07:35;14.40;99.90
33673;DHT22;20011;51.510;9.942;2023-10-31T15:10:03;14.50;99.90
33673;DHT22;20011;51.510;9.942;2023-10-31T15:12:30;14.40;99.90
33673;DHT22;20011;51.510;9.942;2023-10-31T15:14:57;14.40;99.90
33673;DHT22;20011;51.510;9.942;2023-10-31T15:17:24;14.40;99.90
33673;DHT22;20011;51.510;9.942;2023-10-31T15:19:51;14.40;99.90
33673;DHT22;20011;51.510;9.942;2023-10-31T15:22:18;14.30;99.90
33673;DHT22;20011;51.510;9.942;2023-10-31T15:24:45;14.40;99.90
33673;DHT22;20011;51.510;9.942;2023-10-31T15:27:12;14.40;99.90
33673;DHT22;20011;51.510;9.942;2023-10-31T15:29:44;14.40;99.90
33673;DHT22;20011;51.510;9.942;2023-10-31T15:32:11;14.30;99.90
33673;DHT22;20011;51.510;9.942;2023-10-31T15:34:39;14.30;99.90
33673;DHT22;20011;51.510;9.942;2023-10-31T15:37:09;14.30;99.90
33673;DHT22;20011;51.510;9.942;2023-10-31T15:39:38;14.30;99.90